Terminal Aerodrome Forecast
Issued by NWS

Home | Current Version | Previous Version | Text Only | Print | Product List | Glossary On
Versions: 1 2 3 4 5 6 7 8 9 10 11 12
637
FTUS43 KUNR 111720
TAFGCC
TAF
KGCC 111720Z 1118/1218 32015KT P6SM SCT150
     FM120000 31007KT P6SM SCT250
     FM120200 27006KT P6SM SCT250
     FM120500 24007KT P6SM SKC=

USA.gov is the U.S. government's official web portal to all federal, state and local government web resources and services.